Decoded Metar for UUMO ( in ) (IATA:) | Meteo·Mobile Aviation Weather
aviador You're here:

UUMO Decoded Metar

in
Report Time2019-02-17 06:00:00
UTC Time2019-02-17 06:27:32
Flight Rules mvfr MVFR
Wind290° at 17 kt
W.Decomp.*RWY 26: 14.7 kt HW 8.5 kt RCW
W.Rank290° ranks 9
Current wind is above 290° avg. (8.4)
Visibility9999 m
Phenomena:N/A
Clouds:Broken 024 Hf
Expected CloudBase > 1,200 ft AGL from Temp-Dew spread
Ceiling2,400 ft
Temp02°C
Dew Point-1°C (81% RH)
AAT-6.2°C
QNH0998 hPa
Raw Report
METAR UUMO 170600Z 29009MPS 9999 BKN024 02/M01 Q0998 R26/090060 NOSIG
RMK QFE734/0978=

Extra information for UUMO:More info

Social comments